Time;durP1;ratioP1;P1;durP2;ratioP2;P2;SDS_P1;SDS_P2;PMS_P1;PMS_P2;Temp;Humidity;BMP_temperature;BMP_pressure;BME280_temperature;BME280_humidity;BME280_pressure;Samples;Min_cycle;Max_cycle;Signal;HPM_P1;HPM_P2
2022/10/03 00:01:12;;;;;;;8.30;1.70;;;;;;;17.34;100.00;94639.94;6162143;23;20004;-90
2022/10/03 00:03:56;;;;;;;;;;;;;;;17.41;100.00;94638.75;6162578;23;20001;-89
2022/10/03 00:06:41;;;;;;;12.35;1.48;;;;;;;17.30;100.00;94640.88;6188546;23;20217;-88
2022/10/03 00:09:30;;;;;;;5.90;1.13;;;;;;;17.22;100.00;94637.09;6188350;23;20323;-89
2022/10/03 00:12:41;;;;;;;3.65;1.30;;;;;;;17.21;100.00;94640.81;6188309;23;20066;-90
2022/10/03 00:15:27;;;;;;;5.00;1.25;;;;;;;17.08;100.00;94648.53;6162008;23;20005;-89
2022/10/03 00:18:00;;;;;;;10.00;1.48;;;;;;;16.96;100.00;94648.25;6140059;23;20000;-89
2022/10/03 00:20:46;;;;;;;4.20;1.13;;;;;;;17.06;100.00;94640.09;6162230;23;20009;-89
2022/10/03 00:23:34;;;;;;;6.65;1.38;;;;;;;17.03;100.00;94650.53;6188007;23;20013;-90
2022/10/03 00:26:45;;;;;;;3.70;1.00;;;;;;;17.11;100.00;94649.78;6162078;23;20010;-89
2022/10/03 00:29:36;;;;;;;2.35;0.90;;;;;;;17.08;100.00;94656.47;6039612;23;20321;-89
2022/10/03 00:32:09;;;;;;;5.43;1.30;;;;;;;17.07;100.00;94654.13;6039474;23;20005;-88
2022/10/03 00:35:05;;;;;;;8.52;1.10;;;;;;;17.13;100.00;94650.25;6143350;23;20001;-88
2022/10/03 00:37:39;;;;;;;3.53;0.90;;;;;;;17.15;100.00;94649.97;6113330;23;20095;-90
2022/10/03 00:40:16;;;;;;;5.03;1.17;;;;;;;17.17;100.00;94645.94;6161920;23;20316;-89
2022/10/03 00:42:51;;;;;;;2.28;0.88;;;;;;;17.24;100.00;94651.56;6161828;23;20028;-90
2022/10/03 00:45:38;;;;;;;3.47;0.85;;;;;;;17.42;100.00;94659.63;6161660;23;20016;-89
2022/10/03 00:48:28;;;;;;;4.20;0.80;;;;;;;17.54;100.00;94659.06;6162251;23;20020;-88
2022/10/03 00:51:34;;;;;;;1.40;0.70;;;;;;;17.30;100.00;94646.94;6188002;23;20179;-90
2022/10/03 00:54:21;;;;;;;3.47;0.85;;;;;;;17.18;100.00;94652.78;6144515;23;19997;-88
2022/10/03 00:56:52;;;;;;;6.43;1.02;;;;;;;16.81;100.00;94665.25;6161290;23;20092;-90
2022/10/03 01:00:03;;;;;;;4.90;1.00;;;;;;;17.10;100.00;94656.16;6187596;23;20001;-88
2022/10/03 01:02:38;;;;;;;2.97;0.85;;;;;;;17.15;100.00;94648.13;6137797;23;20314;-89
2022/10/03 01:05:15;;;;;;;5.18;1.00;;;;;;;17.23;100.00;94642.06;6187497;23;20001;-89
2022/10/03 01:08:06;;;;;;;4.85;1.00;;;;;;;17.23;100.00;94634.13;6187556;23;20024;-89
2022/10/03 01:11:09;;;;;;;5.13;0.93;;;;;;;16.72;100.00;94640.63;6118093;23;20452;-89
2022/10/03 01:13:41;;;;;;;3.08;0.80;;;;;;;16.64;100.00;94642.88;6216766;23;20279;-89
2022/10/03 01:16:30;;;;;;;3.67;1.20;;;;;;;16.99;100.00;94638.91;6192450;23;20398;-89
2022/10/03 01:19:22;;;;;;;2.15;0.77;;;;;;;16.86;100.00;94635.25;6216211;23;20001;-89
2022/10/03 01:21:59;;;;;;;5.78;1.08;;;;;;;16.72;100.00;94636.09;6216314;23;20000;-89
2022/10/03 01:24:53;;;;;;;6.90;1.00;;;;;;;16.61;100.00;94645.34;6191502;23;20013;-89
2022/10/03 01:30:21;;;;;;;6.38;1.08;;;;;;;16.47;100.00;94648.78;6191658;23;20005;-89
2022/10/03 01:30:35;;;;;;;5.55;0.88;;;;;;;16.48;100.00;94649.59;6215655;23;20027;-89
2022/10/03 01:33:07;;;;;;;;;;;;;;;16.77;100.00;94643.13;6192403;23;19993;-89
2022/10/03 01:35:53;;;;;;;4.20;0.85;;;;;;;16.71;100.00;94653.03;6216187;23;19911;-89
2022/10/03 01:38:42;;;;;;;2.95;0.90;;;;;;;16.80;100.00;94645.97;6191930;23;20098;-89
2022/10/03 01:41:44;;;;;;;;;;;;;;;;;;;;;
2022/10/03 01:44:43;;;;;;;4.10;1.30;;;;;;;16.65;100.00;94652.38;6216265;23;20064;-89
2022/10/03 01:47:41;;;;;;;2.45;0.90;;;;;;;16.88;100.00;94652.41;6191872;23;20409;-89
2022/10/03 01:50:30;;;;;;;1.65;0.90;;;;;;;16.75;100.00;94654.00;6193122;23;20425;-89
2022/10/03 01:53:14;;;;;;;1.58;0.85;;;;;;;16.66;100.00;94645.22;6192286;23;20008;-89
2022/10/03 01:56:03;;;;;;;4.00;0.85;;;;;;;16.75;100.00;94650.59;6192064;23;20001;-90
2022/10/03 01:58:56;;;;;;;3.13;1.08;;;;;;;16.52;100.00;94656.63;6191720;23;20004;-90
2022/10/03 02:02:16;;;;;;;3.92;1.20;;;;;;;16.81;100.00;94657.31;6241155;23;20011;-90
2022/10/03 02:05:36;;;;;;;;;;;;;;;;;;;;;
2022/10/03 02:08:11;;;;;;;3.78;1.10;;;;;;;16.71;100.00;94652.25;6215604;23;20036;-90
2022/10/03 02:10:37;;;;;;;3.53;1.02;;;;;;;16.40;100.00;94646.56;6215694;23;20007;-90
2022/10/03 02:13:26;;;;;;;2.95;1.00;;;;;;;16.29;100.00;94658.44;6216265;23;20001;-90
2022/10/03 02:16:24;;;;;;;3.20;1.20;;;;;;;16.54;100.00;94656.31;6216306;23;20356;-90
2022/10/03 02:18:54;;;;;;;5.63;1.10;;;;;;;16.61;100.00;94650.63;6215722;23;20005;-90
2022/10/03 02:21:39;;;;;;;;;;;;;;;;;;;;;
2022/10/03 02:24:30;;;;;;;5.75;1.10;;;;;;;16.74;100.00;94651.69;6216035;23;20087;-90
2022/10/03 02:27:24;;;;;;;9.95;1.27;;;;;;;16.71;100.00;94655.69;6192369;23;20009;-90
2022/10/03 02:30:18;;;;;;;;;;;;;;;;;;;;;
2022/10/03 02:33:21;;;;;;;4.93;1.27;;;;;;;16.28;100.00;94667.44;6216931;23;20112;-90
2022/10/03 02:35:58;;;;;;;2.65;1.23;;;;;;;16.43;100.00;94660.28;6190964;23;20303;-90
2022/10/03 02:38:55;;;;;;;;;;;;;;;;;;;;;
2022/10/03 02:41:54;;;;;;;1.98;1.17;;;;;;;16.71;100.00;94663.63;6216917;23;20020;-90
2022/10/03 02:44:54;;;;;;;3.22;1.13;;;;;;;16.71;100.00;94666.28;6216916;23;20001;-91
2022/10/03 02:47:40;;;;;;;4.18;1.05;;;;;;;16.91;100.00;94669.53;6216245;23;20012;-90
2022/10/03 02:50:23;;;;;;;3.58;1.17;;;;;;;16.57;100.00;94670.81;6217676;23;20001;-90
2022/10/03 02:53:40;;;;;;;2.33;1.00;;;;;;;16.63;100.00;94677.56;6218083;23;20353;-90
2022/10/03 02:56:30;;;;;;;5.15;1.20;;;;;;;16.94;100.00;94687.47;6183084;23;20086;-90
2022/10/03 02:59:14;;;;;;;9.73;1.02;;;;;;;17.05;100.00;94686.16;6217491;23;19996;-90
2022/10/03 03:02:17;;;;;;;3.28;0.95;;;;;;;17.31;100.00;94692.75;6218887;23;20022;-90
2022/10/03 03:05:04;;;;;;;2.25;0.85;;;;;;;17.49;100.00;94683.03;6217482;23;20406;-89
2022/10/03 03:08:04;;;;;;;3.45;0.90;;;;;;;17.62;100.00;94694.63;6219201;23;20023;-89
2022/10/03 03:11:00;;;;;;;3.88;0.90;;;;;;;17.73;100.00;94695.16;6194046;23;20005;-90
2022/10/03 03:13:45;;;;;;;3.40;0.85;;;;;;;17.68;100.00;94706.66;6217755;23;20031;-91
2022/10/03 03:16:57;;;;;;;10.32;1.00;;;;;;;17.90;100.00;94705.84;6192795;23;20004;-89
2022/10/03 03:19:54;;;;;;;4.05;0.75;;;;;;;16.77;100.00;94701.34;6217892;23;20004;-91
2022/10/03 03:22:36;;;;;;;10.50;1.10;;;;;;;17.07;100.00;94691.19;6192419;23;20000;-90
2022/10/03 03:25:19;;;;;;;3.58;0.98;;;;;;;17.08;100.00;94690.88;6192995;23;20005;-90
2022/10/03 03:28:18;;;;;;;3.38;1.02;;;;;;;16.87;100.00;94700.34;6217885;23;20005;-90
2022/10/03 03:30:58;;;;;;;4.32;1.00;;;;;;;16.68;100.00;94694.09;6194696;23;20005;-90
2022/10/03 03:33:32;;;;;;;4.47;1.10;;;;;;;15.94;100.00;94687.91;6192831;23;20000;-89
2022/10/03 03:36:25;;;;;;;6.75;1.10;;;;;;;15.95;100.00;94699.25;6217692;23;20011;-90
2022/10/03 03:39:39;;;;;;;;;;;;;;;;;;;;;
2022/10/03 03:42:22;;;;;;;3.45;0.90;;;;;;;16.12;100.00;94711.91;6126778;23;20085;-90
2022/10/03 03:45:06;;;;;;;7.75;1.23;;;;;;;16.15;100.00;94706.03;6126658;23;20014;-90
2022/10/03 03:48:09;;;;;;;8.23;1.55;;;;;;;15.84;100.00;94709.22;6127437;23;20025;-90
2022/10/03 03:50:58;;;;;;;5.88;1.50;;;;;;;15.84;100.00;94711.84;6126736;23;20419;-90
2022/10/03 03:54:00;;;;;;;5.70;1.50;;;;;;;16.09;100.00;94715.91;6186271;23;20033;-90
2022/10/03 03:57:13;;;;;;;7.35;1.45;;;;;;;16.19;100.00;94722.09;6217211;23;20051;-90
2022/10/03 03:59:44;;;;;;;6.35;1.33;;;;;;;15.69;100.00;94718.97;6216714;23;20005;-90
2022/10/03 04:02:43;;;;;;;5.25;1.30;;;;;;;15.77;100.00;94722.78;6218627;23;20030;-90
2022/10/03 04:05:41;;;;;;;6.55;1.48;;;;;;;16.28;100.00;94722.19;6192788;23;20091;-90
2022/10/03 04:08:11;;;;;;;7.40;1.58;;;;;;;16.12;100.00;94717.19;6192516;23;20020;-90
2022/10/03 04:10:54;;;;;;;9.30;1.42;;;;;;;16.11;100.00;94729.59;6216851;23;20357;-90
2022/10/03 04:13:46;;;;;;;12.18;1.60;;;;;;;16.24;100.00;94721.97;6217043;23;20012;-90
2022/10/03 04:19:33;;;;;;;5.82;1.45;;;;;;;16.20;100.00;94721.78;6171217;23;20004;-90
2022/10/03 04:22:28;;;;;;;4.03;1.15;;;;;;;16.49;100.00;94720.69;6194066;23;20313;-90
2022/10/03 04:25:25;;;;;;;12.93;1.38;;;;;;;16.65;100.00;94709.81;6218338;23;20008;-89
2022/10/03 04:28:25;;;;;;;8.48;1.48;;;;;;;16.71;100.00;94716.53;6192978;23;20056;-90
2022/10/03 04:30:56;;;;;;;7.03;1.90;;;;;;;16.46;100.00;94723.91;6192995;23;20000;-90
2022/10/03 04:34:03;;;;;;;9.13;1.55;;;;;;;16.39;100.00;94723.53;6217924;23;20283;-89
2022/10/03 04:36:58;;;;;;;;;;;;;;;;;;;;;
2022/10/03 04:40:02;;;;;;;;;;;;;;;;;;;;;
2022/10/03 04:42:49;;;;;;;6.67;1.20;;;;;;;16.80;100.00;94712.13;6216827;23;20068;-92
2022/10/03 04:45:40;;;;;;;5.10;1.23;;;;;;;17.00;100.00;94720.72;6216842;23;20005;-91
2022/10/03 04:48:11;;;;;;;4.80;1.20;;;;;;;17.01;100.00;94724.91;6178438;23;20005;-92
2022/10/03 04:51:15;;;;;;;;;;;;;;;;;;;;;
2022/10/03 04:53:56;;;;;;;6.38;1.52;;;;;;;16.84;100.00;94724.75;6218095;23;20092;-92
2022/10/03 04:57:02;;;;;;;5.68;1.17;;;;;;;17.28;100.00;94715.31;6192171;23;20310;-91
2022/10/03 04:59:35;;;;;;;4.82;1.20;;;;;;;17.33;100.00;94712.53;6218319;23;20051;-90
2022/10/03 05:02:14;;;;;;;5.60;1.30;;;;;;;17.32;100.00;94721.56;6191989;23;20054;-91
2022/10/03 05:05:09;;;;;;;6.55;1.23;;;;;;;17.31;100.00;94729.81;6216729;23;20058;-90
2022/10/03 05:07:46;;;;;;;3.72;1.20;;;;;;;16.92;100.00;94731.97;6191668;23;20001;-90
2022/10/03 05:10:42;;;;;;;8.82;1.83;;;;;;;16.69;100.00;94721.34;6212142;23;20314;-90
2022/10/03 05:13:16;;;;;;;8.68;1.60;;;;;;;16.48;100.00;94739.50;6161510;23;20314;-89
2022/10/03 05:16:07;;;;;;;5.60;1.50;;;;;;;16.74;100.00;94733.69;6161628;23;19997;-90
2022/10/03 05:18:54;;;;;;;7.15;1.67;;;;;;;16.58;100.00;94739.31;6161357;23;19999;-89
2022/10/03 05:21:31;;;;;;;9.35;1.40;;;;;;;16.36;100.00;94735.50;6187810;23;20096;-89
2022/10/03 05:24:15;;;;;;;2.40;1.17;;;;;;;16.68;100.00;94743.59;6161660;23;20008;-89
2022/10/03 05:26:55;;;;;;;;;;;;;;;16.56;100.00;94748.59;6188139;23;20001;-89
2022/10/03 05:29:21;;;;;;;5.78;1.48;;;;;;;16.43;100.00;94745.66;6137319;23;19932;-88
2022/10/03 05:32:08;;;;;;;7.35;1.17;;;;;;;16.18;100.00;94746.94;6161297;23;20291;-88
2022/10/03 05:35:16;;;;;;;8.55;1.95;;;;;;;16.44;100.00;94751.75;6161164;23;20310;-89
2022/10/03 05:38:08;;;;;;;4.78;1.30;;;;;;;16.54;100.00;94757.63;6161744;23;19993;-88
2022/10/03 05:40:35;;;;;;;9.52;1.67;;;;;;;16.42;100.00;94753.88;6160776;23;20011;-90
2022/10/03 05:43:28;;;;;;;4.95;1.90;;;;;;;16.54;100.00;94754.19;6161439;23;20019;-89
2022/10/03 05:46:13;;;;;;;;;;;;;;;;;;;;;
2022/10/03 05:49:02;;;;;;;7.78;1.27;;;;;;;16.15;100.00;94756.25;6163175;23;20032;-91
2022/10/03 05:51:46;;;;;;;9.30;1.80;;;;;;;16.23;100.00;94754.78;6161144;23;20009;-90
2022/10/03 05:54:42;;;;;;;3.60;1.33;;;;;;;16.56;100.00;94759.19;6161526;23;20032;-89
2022/10/03 05:57:47;;;;;;;;;;;;;;;;;;;;;
2022/10/03 06:00:24;;;;;;;7.30;1.55;;;;;;;17.26;100.00;94759.84;6187066;23;20490;-90
2022/10/03 06:02:57;;;;;;;7.65;1.52;;;;;;;17.40;100.00;94762.44;6161851;23;20047;-91
2022/10/03 06:05:28;;;;;;;5.32;1.40;;;;;;;17.37;100.00;94755.88;6160932;23;20005;-90
2022/10/03 06:08:24;;;;;;;4.10;1.10;;;;;;;17.33;100.00;94756.78;6161901;23;20000;-90
2022/10/03 06:11:19;;;;;;;5.63;1.73;;;;;;;17.35;100.00;94760.69;6178814;23;20007;-90
2022/10/03 06:14:08;;;;;;;6.00;1.20;;;;;;;17.63;100.00;94757.13;6138874;23;20394;-90
2022/10/03 06:16:50;;;;;;;5.97;0.90;;;;;;;17.55;100.00;94745.41;6192367;23;20524;-90
2022/10/03 06:19:22;;;;;;;7.00;1.70;;;;;;;17.64;100.00;94748.88;6191408;23;20471;-91
2022/10/03 06:21:56;;;;;;;4.47;0.82;;;;;;;17.83;100.00;94758.50;6216237;23;20403;-90
2022/10/03 06:24:27;;;;;;;6.97;1.48;;;;;;;17.90;100.00;94758.84;6217403;23;20008;-90
2022/10/03 06:27:42;;;;;;;;;;;;;;;;;;;;;
2022/10/03 06:30:20;;;;;;;2.47;1.05;;;;;;;18.14;100.00;94762.25;6215626;23;20232;-89
2022/10/03 06:33:05;;;;;;;7.88;1.70;;;;;;;18.06;100.00;94769.09;6217008;23;20000;-88
2022/10/03 06:35:38;;;;;;;5.85;1.67;;;;;;;17.92;100.00;94769.16;6215755;23;19997;-88
2022/10/03 06:38:22;;;;;;;5.03;1.52;;;;;;;18.20;100.00;94769.00;6216236;23;20088;-88
2022/10/03 06:41:28;;;;;;;3.38;1.00;;;;;;;18.37;100.00;94766.41;6216745;23;19995;-88
2022/10/03 06:44:18;;;;;;;4.43;1.67;;;;;;;18.47;100.00;94772.53;6216926;23;20001;-88
2022/10/03 06:47:03;;;;;;;4.25;1.30;;;;;;;18.21;100.00;94763.38;6216103;23;20004;-88
2022/10/03 06:49:57;;;;;;;8.82;1.58;;;;;;;18.14;100.00;94765.69;6217093;23;19997;-88
2022/10/03 06:52:50;;;;;;;6.73;1.40;;;;;;;18.39;100.00;94768.78;6216105;23;20001;-88
2022/10/03 06:55:34;;;;;;;3.00;1.38;;;;;;;18.56;100.00;94770.66;6215770;23;20394;-88
2022/10/03 06:58:01;;;;;;;;;;;;;;;18.57;100.00;94774.88;6215720;23;20000;-89
2022/10/03 07:00:45;;;;;;;1.83;0.80;;;;;;;18.71;100.00;94782.75;6215172;23;19911;-89
2022/10/03 07:03:56;;;;;;;2.35;0.88;;;;;;;18.96;100.00;94777.81;6215746;23;20000;-88
2022/10/03 07:06:36;;;;;;;3.30;1.00;;;;;;;19.05;100.00;94775.94;6161371;23;20047;-88
2022/10/03 07:09:26;;;;;;;3.10;0.68;;;;;;;19.23;100.00;94772.53;6215568;23;20362;-88
2022/10/03 07:12:14;;;;;;;2.10;1.10;;;;;;;19.28;100.00;94790.97;6192299;23;20005;-88
2022/10/03 07:14:54;;;;;;;6.30;0.88;;;;;;;19.35;100.00;94783.31;6186792;23;20072;-88
2022/10/03 07:17:46;;;;;;;2.95;1.15;;;;;;;19.59;100.00;94788.16;6161017;23;20012;-88
2022/10/03 07:20:25;;;;;;;4.53;0.90;;;;;;;19.63;100.00;94783.75;6160571;23;20000;-88
2022/10/03 07:23:28;;;;;;;4.97;1.20;;;;;;;19.71;100.00;94782.19;6161091;23;20402;-88
2022/10/03 07:26:26;;;;;;;9.45;1.33;;;;;;;19.74;100.00;94780.78;6160840;23;20005;-88
2022/10/03 07:29:45;;;;;;;4.80;1.40;;;;;;;19.87;100.00;94787.78;6186570;23;20001;-87
2022/10/03 07:32:11;;;;;;;6.45;0.95;;;;;;;19.99;100.00;94783.72;6066958;23;20440;-88
2022/10/03 07:35:10;;;;;;;3.00;1.27;;;;;;;20.20;100.00;94789.16;6161798;23;20001;-88
2022/10/03 07:40:42;;;;;;;5.30;1.20;;;;;;;19.98;100.00;94787.50;6188333;23;20016;-88
2022/10/03 07:43:16;;;;;;;2.33;0.90;;;;;;;20.13;100.00;94781.66;6162589;23;20135;-88
2022/10/03 07:46:04;;;;;;;7.75;1.40;;;;;;;20.24;100.00;94784.75;6188621;23;20006;-88
2022/10/03 07:48:44;;;;;;;5.75;1.27;;;;;;;20.34;100.00;94794.25;6162130;23;20001;-88
2022/10/03 07:51:18;;;;;;;6.68;1.10;;;;;;;20.40;100.00;94790.34;6188318;23;20001;-88
2022/10/03 07:53:53;;;;;;;4.47;1.05;;;;;;;20.46;100.00;94789.03;6162561;23;20001;-88
2022/10/03 07:56:49;;;;;;;4.85;1.33;;;;;;;20.61;100.00;94794.91;6162524;23;20015;-88
2022/10/03 07:59:24;;;;;;;4.57;1.10;;;;;;;20.71;100.00;94796.44;6162390;23;20008;-88
2022/10/03 08:01:58;;;;;;;6.50;1.63;;;;;;;20.83;100.00;94795.78;6188269;23;19997;-88
2022/10/03 08:04:26;;;;;;;3.97;1.20;;;;;;;20.83;100.00;94799.22;6162009;23;20063;-88
2022/10/03 08:07:03;;;;;;;3.75;0.95;;;;;;;20.91;100.00;94792.28;6162472;23;20000;-88
2022/10/03 08:09:42;;;;;;;3.03;1.17;;;;;;;20.75;100.00;94792.81;6187977;23;20005;-88
2022/10/03 08:12:34;;;;;;;6.45;1.63;;;;;;;20.98;100.00;94799.75;6189136;23;20005;-88
2022/10/03 08:15:09;;;;;;;4.75;1.20;;;;;;;21.17;100.00;94802.00;6162230;23;20029;-89
2022/10/03 08:18:02;;;;;;;13.32;1.45;;;;;;;20.89;100.00;94803.28;6162767;23;20012;-88
2022/10/03 08:20:41;;;;;;;4.10;0.98;;;;;;;21.35;100.00;94807.97;6161766;23;20292;-88
2022/10/03 08:23:12;;;;;;;4.22;1.02;;;;;;;21.44;100.00;94811.34;6162708;23;20007;-88
2022/10/03 08:25:53;;;;;;;4.10;1.23;;;;;;;21.46;100.00;94819.81;6188207;23;20307;-88
2022/10/03 08:28:42;;;;;;;10.05;1.60;;;;;;;21.40;100.00;94825.66;6162364;23;20080;-88
2022/10/03 08:31:28;;;;;;;4.18;1.10;;;;;;;21.73;100.00;94822.28;6161701;23;20031;-88
2022/10/03 08:34:04;;;;;;;12.45;1.80;;;;;;;21.50;100.00;94829.81;6162167;23;20051;-87
2022/10/03 08:36:49;;;;;;;7.50;1.50;;;;;;;21.63;100.00;94820.78;6161897;23;20001;-88
2022/10/03 08:39:40;;;;;;;8.35;1.67;;;;;;;21.69;100.00;94818.72;6161693;23;20001;-89
2022/10/03 08:42:44;;;;;;;5.80;1.35;;;;;;;21.95;100.00;94823.81;6171885;23;20005;-88
2022/10/03 08:45:15;;;;;;;5.68;1.27;;;;;;;21.95;100.00;94820.34;6187933;23;20092;-88
2022/10/03 08:48:25;;;;;;;6.38;1.83;;;;;;;22.07;100.00;94819.63;6188205;23;20003;-88
2022/10/03 08:51:18;;;;;;;3.80;1.73;;;;;;;22.42;100.00;94822.69;6187883;23;20062;-88
2022/10/03 08:53:49;;;;;;;8.88;1.83;;;;;;;22.42;100.00;94829.91;6188146;23;20393;-88
2022/10/03 08:56:44;;;;;;;12.55;2.10;;;;;;;22.14;98.41;94828.66;6161728;23;20005;-88
2022/10/03 08:59:29;;;;;;;11.95;1.73;;;;;;;22.49;100.00;94824.06;6161860;23;19993;-87
2022/10/03 09:02:14;;;;;;;7.60;2.03;;;;;;;22.66;100.00;94828.41;6161974;23;19997;-88
2022/10/03 09:05:18;;;;;;;12.07;2.15;;;;;;;22.53;100.00;94831.06;6161814;23;20013;-89
2022/10/03 09:07:59;;;;;;;7.78;1.88;;;;;;;22.58;100.00;94840.75;6186694;23;20529;-89
2022/10/03 09:10:34;;;;;;;5.25;1.77;;;;;;;22.70;99.46;94838.09;6145755;23;20007;-88
2022/10/03 09:13:05;;;;;;;6.15;2.20;;;;;;;22.43;99.69;94842.94;6216426;23;20083;-88
2022/10/03 09:15:40;;;;;;;5.93;1.50;;;;;;;22.76;100.00;94833.31;6216703;23;20003;-88
2022/10/03 09:18:10;;;;;;;7.10;1.90;;;;;;;22.41;100.00;94833.69;6216782;23;20449;-89
2022/10/03 09:21:06;;;;;;;11.80;1.90;;;;;;;22.57;100.00;94828.53;6216243;23;20313;-87
2022/10/03 09:24:06;;;;;;;16.92;2.53;;;;;;;22.54;100.00;94827.28;6217456;23;20054;-88
2022/10/03 09:27:11;;;;;;;10.90;2.20;;;;;;;21.67;100.00;94834.28;6216288;23;20354;-88
2022/10/03 09:30:06;;;;;;;8.32;2.95;;;;;;;22.61;100.00;94821.41;6218054;23;20024;-88
2022/10/03 09:32:59;;;;;;;11.10;2.70;;;;;;;22.84;100.00;94828.97;6191400;23;20059;-88
2022/10/03 09:35:37;;;;;;;9.57;1.60;;;;;;;22.32;100.00;94831.13;6217486;23;19997;-88
2022/10/03 09:38:27;;;;;;;11.65;2.47;;;;;;;22.70;100.00;94829.28;6216610;23;20024;-88
2022/10/03 09:41:18;;;;;;;6.75;2.30;;;;;;;22.74;100.00;94830.19;6215750;23;20402;-89
2022/10/03 09:44:34;;;;;;;5.82;1.83;;;;;;;23.41;100.00;94837.94;6216432;23;19996;-89
2022/10/03 09:47:27;;;;;;;6.10;1.80;;;;;;;23.23;99.67;94831.25;6077519;23;20002;-88
2022/10/03 09:50:07;;;;;;;8.55;1.95;;;;;;;23.37;100.00;94829.03;6241623;23;20000;-90
2022/10/03 09:52:51;;;;;;;14.75;2.75;;;;;;;23.27;100.00;94829.50;6217629;23;20314;-89
2022/10/03 09:55:35;;;;;;;9.20;1.92;;;;;;;23.11;95.07;94822.16;6216348;23;19997;-88
2022/10/03 09:58:04;;;;;;;;;;;;;;;23.78;100.00;94828.25;6216181;23;20001;-89
2022/10/03 10:00:54;;;;;;;10.63;2.50;;;;;;;23.95;92.23;94819.91;6216228;23;19904;-87
2022/10/03 10:03:41;;;;;;;10.82;2.67;;;;;;;23.40;91.68;94827.59;6216416;23;20001;-88
2022/10/03 10:06:13;;;;;;;12.32;2.80;;;;;;;23.27;95.67;94827.63;6215633;23;20012;-89
2022/10/03 10:09:01;;;;;;;10.43;2.50;;;;;;;23.64;98.24;94825.94;6217726;23;20287;-89
2022/10/03 10:11:45;;;;;;;11.45;2.80;;;;;;;23.93;94.10;94819.47;6197572;23;20031;-88
2022/10/03 10:14:34;;;;;;;10.32;2.58;;;;;;;24.03;99.03;94822.78;6161576;23;20001;-88
2022/10/03 10:17:21;;;;;;;11.05;2.13;;;;;;;24.35;89.42;94814.81;6187023;23;20362;-88
2022/10/03 10:20:23;;;;;;;11.63;2.80;;;;;;;23.36;94.80;94818.66;6187087;23;20284;-89
2022/10/03 10:23:04;;;;;;;20.85;3.75;;;;;;;23.92;91.79;94812.56;6160869;23;20375;-88
2022/10/03 10:25:32;;;;;;;13.10;2.47;;;;;;;23.71;98.04;94810.88;6161103;23;20399;-87
2022/10/03 10:28:28;;;;;;;18.48;3.17;;;;;;;23.33;95.27;94806.78;6187169;23;20482;-89
2022/10/03 10:31:18;;;;;;;7.22;2.85;;;;;;;23.93;94.51;94811.44;6162371;23;19997;-88
2022/10/03 10:34:35;;;;;;;7.97;2.67;;;;;;;23.95;96.74;94811.09;6186779;23;19997;-89
2022/10/03 10:37:31;;;;;;;8.18;2.08;;;;;;;24.40;90.59;94810.00;6043391;23;20002;-88
2022/10/03 10:40:25;;;;;;;13.02;2.72;;;;;;;24.05;95.25;94813.31;6044104;23;20003;-88
2022/10/03 10:43:05;;;;;;;13.35;3.35;;;;;;;23.83;95.27;94806.59;6169846;23;20005;-88
2022/10/03 10:46:07;;;;;;;14.10;3.40;;;;;;;23.81;87.68;94812.28;6187157;23;20001;-88
2022/10/03 10:48:56;;;;;;;14.52;2.90;;;;;;;24.14;90.73;94810.47;6187151;23;20001;-88
2022/10/03 10:51:58;;;;;;;15.15;2.92;;;;;;;24.23;90.83;94807.63;6186859;23;20064;-88
2022/10/03 10:54:51;;;;;;;12.13;3.17;;;;;;;24.43;87.68;94806.63;6161076;23;19997;-88
2022/10/03 10:57:38;;;;;;;11.38;3.10;;;;;;;25.13;82.27;94801.69;6161420;23;20051;-88
2022/10/03 11:00:46;;;;;;;8.35;2.42;;;;;;;25.78;81.52;94809.53;6136785;23;20005;-87
2022/10/03 11:03:29;;;;;;;15.40;3.65;;;;;;;23.44;91.64;94804.41;6141079;23;20033;-88
2022/10/03 11:06:10;;;;;;;;;;;;;;;24.74;81.21;94808.84;6187172;23;20012;-87
2022/10/03 11:09:13;;;;;;;16.70;2.58;;;;;;;24.92;77.70;94807.38;6160898;23;19908;-88
2022/10/03 11:12:27;;;;;;;15.77;2.67;;;;;;;24.71;79.83;94810.31;6188855;23;20055;-87
2022/10/03 11:15:30;;;;;;;10.32;2.38;;;;;;;24.43;80.84;94809.28;6083940;23;20003;-87
2022/10/03 11:17:56;;;;;;;14.55;3.22;;;;;;;23.78;86.88;94806.84;6162571;23;20382;-88
2022/10/03 11:20:40;;;;;;;8.45;2.50;;;;;;;24.33;87.28;94807.13;6162871;23;20005;-88
2022/10/03 11:23:15;;;;;;;13.85;2.78;;;;;;;24.72;82.32;94806.50;6188945;23;20004;-88
2022/10/03 11:25:59;;;;;;;13.40;2.75;;;;;;;24.82;83.14;94805.25;6188725;23;20005;-88
2022/10/03 11:29:03;;;;;;;15.45;2.67;;;;;;;24.73;81.24;94794.66;6162843;23;20417;-87
2022/10/03 11:31:40;;;;;;;;;;;;;;;25.03;79.93;94799.56;6143925;23;20450;-88
2022/10/03 11:34:51;;;;;;;8.02;2.50;;;;;;;24.82;83.33;94794.53;6188813;23;20000;-87
2022/10/03 11:37:53;;;;;;;15.93;2.90;;;;;;;24.42;80.01;94799.72;6143173;23;20047;-87
2022/10/03 11:40:40;;;;;;;12.32;2.80;;;;;;;24.13;80.98;94790.97;6188323;23;20051;-87
2022/10/03 11:43:44;;;;;;;11.55;2.92;;;;;;;23.88;81.46;94792.19;6162886;23;20462;-88
2022/10/03 11:46:25;;;;;;;15.90;2.70;;;;;;;23.66;86.82;94788.94;6162797;23;20055;-87
2022/10/03 11:49:00;;;;;;;15.10;2.08;;;;;;;24.84;80.79;94789.59;6162898;23;20024;-89
2022/10/03 11:51:36;;;;;;;11.88;2.42;;;;;;;25.21;77.77;94786.53;6137783;23;20318;-88
2022/10/03 11:54:08;;;;;;;8.32;2.58;;;;;;;25.36;78.69;94779.56;6162656;23;19997;-88
2022/10/03 11:56:43;;;;;;;5.82;1.83;;;;;;;25.97;73.27;94785.34;6162292;23;20001;-89
2022/10/03 11:59:24;;;;;;;;;;;;;;;;;;;;;
2022/10/03 12:02:08;;;;;;;7.80;2.53;;;;;;;24.96;73.76;94772.63;6188473;23;20033;-89
2022/10/03 12:04:56;;;;;;;7.85;2.38;;;;;;;26.05;69.68;94770.13;6187968;23;20012;-90
2022/10/03 12:10:58;;;;;;;12.57;2.70;;;;;;;25.46;73.68;94764.03;6102829;23;20469;-90
2022/10/03 12:13:42;;;;;;;12.48;1.92;;;;;;;26.12;72.99;94766.81;6156202;23;20055;-88
2022/10/03 12:16:23;;;;;;;8.00;2.85;;;;;;;24.41;73.59;94766.03;6196721;23;20460;-88
2022/10/03 12:18:52;;;;;;;8.10;2.55;;;;;;;24.93;82.83;94760.69;6192550;23;20055;-90
2022/10/03 12:21:28;;;;;;;19.95;2.85;;;;;;;24.89;80.76;94753.69;6217116;23;20008;-88
2022/10/03 12:24:22;;;;;;;14.50;2.63;;;;;;;25.23;77.09;94748.66;6218085;23;19999;-89
2022/10/03 12:26:55;;;;;;;;;;;;;;;25.41;71.95;94760.50;6217448;23;20306;-86
2022/10/03 12:29:24;;;;;;;11.05;2.17;;;;;;;25.50;69.73;94752.28;6217791;23;19985;-87
2022/10/03 12:32:11;;;;;;;11.57;2.08;;;;;;;26.05;69.42;94758.63;6216975;23;20051;-87
2022/10/03 12:34:46;;;;;;;10.40;2.65;;;;;;;25.67;74.38;94758.34;6217122;23;20016;-87
2022/10/03 12:37:45;;;;;;;7.00;2.08;;;;;;;26.31;70.99;94760.63;6192147;23;20083;-87
2022/10/03 12:40:15;;;;;;;12.85;2.40;;;;;;;25.99;69.48;94755.47;6217455;23;20075;-86
2022/10/03 12:42:59;;;;;;;11.18;2.35;;;;;;;26.53;70.98;94755.56;6216663;23;20031;-86
2022/10/03 12:45:42;;;;;;;7.07;2.00;;;;;;;26.74;63.75;94749.75;6217841;23;20013;-87
2022/10/03 12:48:46;;;;;;;11.02;2.65;;;;;;;26.59;66.04;94748.78;6192503;23;20302;-87
2022/10/03 12:51:34;;;;;;;13.30;2.30;;;;;;;26.27;68.17;94749.06;6216829;23;20000;-87
2022/10/03 12:54:23;;;;;;;9.02;1.95;;;;;;;26.08;67.58;94741.81;6216418;23;20046;-87
2022/10/03 12:56:53;;;;;;;7.10;2.20;;;;;;;26.57;67.12;94739.50;6216538;23;20004;-87
2022/10/03 12:59:41;;;;;;;11.27;2.28;;;;;;;26.16;68.10;94751.53;6217955;23;20004;-88
2022/10/03 13:02:19;;;;;;;8.02;1.95;;;;;;;25.77;71.49;94746.28;6191755;23;20440;-86
2022/10/03 13:04:54;;;;;;;11.15;2.58;;;;;;;25.79;70.03;94746.69;6216086;23;20087;-87
2022/10/03 13:07:40;;;;;;;9.63;2.17;;;;;;;25.69;69.70;94735.38;6217897;23;20028;-86
2022/10/03 13:10:17;;;;;;;20.15;2.50;;;;;;;25.58;73.66;94737.09;6214236;23;20023;-87
2022/10/03 13:12:51;;;;;;;12.55;2.75;;;;;;;25.13;75.21;94737.38;6161628;23;20391;-86
2022/10/03 13:15:52;;;;;;;11.80;2.92;;;;;;;24.80;74.04;94732.44;6161397;23;19993;-86
2022/10/03 13:18:31;;;;;;;10.20;2.15;;;;;;;25.09;75.26;94728.47;6161357;23;20005;-87
2022/10/03 13:21:08;;;;;;;10.80;2.30;;;;;;;25.77;72.28;94728.25;6161367;23;19997;-86
2022/10/03 13:23:59;;;;;;;14.13;2.65;;;;;;;26.00;71.89;94729.38;6161447;23;20005;-86
2022/10/03 13:26:53;;;;;;;10.30;2.50;;;;;;;25.49;70.31;94729.28;6161892;23;20008;-86
2022/10/03 13:29:19;;;;;;;14.63;2.53;;;;;;;25.40;71.48;94724.09;6187186;23;20025;-86